createdAt,value
2023-03-31T00:00:41.139Z,80.1
2023-03-31T00:01:42.310Z,80.1
2023-03-31T00:02:43.592Z,80
2023-03-31T00:03:46.204Z,80
2023-03-31T00:04:47.678Z,80
2023-03-31T00:05:48.630Z,80
2023-03-31T00:06:49.803Z,79.9
2023-03-31T00:07:50.939Z,79.9
2023-03-31T00:08:53.067Z,79.9
2023-03-31T00:10:18.534Z,79.9
2023-03-31T00:11:19.972Z,79.9
2023-03-31T00:12:20.943Z,79.9
2023-03-31T00:13:21.918Z,79.9
2023-03-31T00:14:23.081Z,79.9
2023-03-31T00:15:24.048Z,79.8
2023-03-31T00:16:25.370Z,79.8
2023-03-31T00:17:26.481Z,79.8
2023-03-31T00:18:27.643Z,79.8
2023-03-31T00:19:28.803Z,79.7
2023-03-31T00:20:29.974Z,79.7
2023-03-31T00:21:31.135Z,79.7
2023-03-31T00:22:32.316Z,79.7
2023-03-31T00:23:33.494Z,79.7
2023-03-31T00:24:34.601Z,79.7
2023-03-31T00:25:35.757Z,79.6
2023-03-31T00:26:36.798Z,79.6
2023-03-31T00:27:37.822Z,79.6
2023-03-31T00:28:38.980Z,79.6
2023-03-31T00:29:40.147Z,79.6
2023-03-31T00:30:41.326Z,79.6
2023-03-31T00:31:42.325Z,79.6
2023-03-31T00:32:43.618Z,79.6
2023-03-31T00:33:44.651Z,79.5
2023-03-31T00:34:45.621Z,79.5
2023-03-31T00:35:46.504Z,79.5
2023-03-31T00:36:47.969Z,79.5
2023-03-31T00:37:49.133Z,79.5
2023-03-31T00:38:50.320Z,79.4
2023-03-31T00:39:51.161Z,79.4
2023-03-31T00:40:54.484Z,79.4
2023-03-31T00:41:55.711Z,79.4
2023-03-31T00:42:56.871Z,79.4
2023-03-31T00:43:57.884Z,79.4
2023-03-31T00:44:59.081Z,79.3
2023-03-31T00:46:00.118Z,79.3
2023-03-31T00:47:01.387Z,79.3
2023-03-31T00:48:02.551Z,79.3
2023-03-31T00:49:03.518Z,79.3
2023-03-31T00:50:04.698Z,79.3
2023-03-31T00:51:05.912Z,79.4
2023-03-31T00:52:07.149Z,79.4
2023-03-31T00:53:08.326Z,79.4
2023-03-31T00:54:09.372Z,79.5
2023-03-31T00:55:10.539Z,79.5
2023-03-31T00:56:11.701Z,79.5
2023-03-31T00:57:12.974Z,79.5
2023-03-31T00:58:14.137Z,79.5
2023-03-31T00:59:15.310Z,79.6
2023-03-31T01:00:16.316Z,79.7
2023-03-31T01:01:17.452Z,79.7
2023-03-31T01:02:18.629Z,79.7
2023-03-31T01:03:19.730Z,79.7
2023-03-31T01:05:26.751Z,79.8
2023-03-31T01:06:27.913Z,79.9
2023-03-31T01:07:29.098Z,79.9
2023-03-31T01:08:30.060Z,79.9
2023-03-31T01:09:31.266Z,79.9
2023-03-31T01:10:32.423Z,79.9
2023-03-31T01:11:33.592Z,79.9
2023-03-31T01:12:34.756Z,79.9
2023-03-31T01:13:35.920Z,79.9
2023-03-31T01:14:37.086Z,80
2023-03-31T01:15:38.056Z,80
2023-03-31T01:16:39.365Z,80
2023-03-31T01:17:40.946Z,80.1
2023-03-31T01:18:42.253Z,80.1
2023-03-31T01:19:43.494Z,80.1
2023-03-31T01:20:44.472Z,80.1
2023-03-31T01:21:45.432Z,80.2
2023-03-31T01:22:46.693Z,80.2
2023-03-31T01:23:47.844Z,80.3
2023-03-31T01:24:49.046Z,80.3
2023-03-31T01:25:50.066Z,80.3
2023-03-31T01:26:51.233Z,80.4
2023-03-31T01:27:52.242Z,80.4
2023-03-31T01:28:53.488Z,80.5
2023-03-31T01:29:54.274Z,80.5
2023-03-31T01:30:55.461Z,80.5
2023-03-31T01:31:56.685Z,80.5
2023-03-31T01:32:57.719Z,80.6
2023-03-31T01:33:58.953Z,80.6
2023-03-31T01:34:59.967Z,80.7
2023-03-31T01:36:01.230Z,80.7
2023-03-31T01:37:02.454Z,80.7
2023-03-31T01:38:03.628Z,80.8
2023-03-31T01:39:04.786Z,80.8
2023-03-31T01:40:05.983Z,80.8
2023-03-31T01:41:07.118Z,80.9
2023-03-31T01:42:08.131Z,80.9
2023-03-31T01:43:09.296Z,80.9
2023-03-31T01:44:10.597Z,80.9
2023-03-31T01:45:11.623Z,81
2023-03-31T01:46:13.214Z,81
2023-03-31T01:47:14.180Z,81
2023-03-31T01:48:15.149Z,81
2023-03-31T01:49:16.158Z,81
2023-03-31T01:50:17.325Z,81.1
2023-03-31T01:51:18.494Z,81.1
2023-03-31T01:52:19.896Z,81.1
2023-03-31T01:53:21.104Z,81.2
2023-03-31T01:54:22.075Z,81.2
2023-03-31T01:55:23.101Z,81.3
2023-03-31T01:56:24.117Z,81.3
2023-03-31T01:57:25.345Z,81.3
2023-03-31T01:58:26.456Z,81.4
2023-03-31T01:59:27.631Z,81.4
2023-03-31T02:00:28.592Z,81.4
2023-03-31T02:01:31.843Z,81.4
2023-03-31T02:02:33.538Z,81.4
2023-03-31T02:03:35.255Z,81.4
2023-03-31T02:04:36.431Z,81.4
2023-03-31T02:05:37.600Z,81.4
2023-03-31T02:06:38.568Z,81.5
2023-03-31T02:07:39.737Z,81.4
2023-03-31T02:08:40.906Z,81.4
2023-03-31T02:09:42.066Z,81.4
2023-03-31T02:10:43.277Z,81.4
2023-03-31T02:11:44.225Z,81.4
2023-03-31T02:12:45.397Z,81.4
2023-03-31T02:13:46.558Z,81.4
2023-03-31T02:14:47.881Z,81.4
2023-03-31T02:15:49.080Z,81.4
2023-03-31T02:16:50.592Z,81.4
2023-03-31T02:17:51.828Z,81.4
2023-03-31T02:18:52.674Z,81.4
2023-03-31T02:19:53.818Z,81.4
2023-03-31T02:20:54.962Z,81.4
2023-03-31T02:21:55.952Z,81.4
2023-03-31T02:22:57.116Z,81.4
2023-03-31T02:23:58.274Z,81.4
2023-03-31T02:24:59.453Z,81.4
2023-03-31T02:26:00.487Z,81.4
2023-03-31T02:27:01.644Z,81.4
2023-03-31T02:28:02.454Z,81.5
2023-03-31T02:29:03.628Z,81.5
2023-03-31T02:30:04.781Z,81.5
2023-03-31T02:31:05.979Z,81.5
2023-03-31T02:32:07.121Z,81.5
2023-03-31T02:33:08.649Z,81.5
2023-03-31T02:34:09.596Z,81.5
2023-03-31T02:35:10.751Z,81.5
2023-03-31T02:36:12.037Z,81.6
2023-03-31T02:37:13.062Z,81.6
2023-03-31T02:38:14.234Z,81.6
2023-03-31T02:39:15.195Z,81.7
2023-03-31T02:40:16.009Z,81.7
2023-03-31T02:41:17.046Z,81.7
2023-03-31T02:42:18.196Z,81.7
2023-03-31T02:43:19.354Z,81.8
2023-03-31T02:44:20.522Z,81.8
2023-03-31T02:45:21.682Z,81.8
2023-03-31T02:46:22.806Z,81.9
2023-03-31T02:47:24.382Z,81.9
2023-03-31T02:48:25.528Z,81.9
2023-03-31T02:49:26.501Z,82
2023-03-31T02:50:27.663Z,82
2023-03-31T02:51:28.634Z,82
2023-03-31T02:52:29.445Z,82
2023-03-31T02:53:30.614Z,82
2023-03-31T02:54:31.782Z,82.1
2023-03-31T02:55:32.793Z,82.1
2023-03-31T02:56:33.985Z,82.1
2023-03-31T02:57:35.010Z,82.1
2023-03-31T02:58:36.181Z,82.1
2023-03-31T02:59:37.342Z,82.2
2023-03-31T03:00:38.508Z,82.2
2023-03-31T03:01:39.836Z,82.2
2023-03-31T03:02:41.559Z,82.3
2023-03-31T03:03:42.797Z,82.3
2023-03-31T03:04:43.765Z,82.4
2023-03-31T03:05:44.930Z,82.4
2023-03-31T03:06:46.102Z,82.5
2023-03-31T03:07:47.262Z,82.5
2023-03-31T03:08:48.424Z,82.6
2023-03-31T03:09:49.599Z,82.6
2023-03-31T03:10:50.562Z,82.7
2023-03-31T03:11:51.627Z,82.7
2023-03-31T03:12:52.488Z,82.7
2023-03-31T03:13:53.666Z,82.8
2023-03-31T03:14:54.854Z,82.8
2023-03-31T03:15:56.036Z,82.8
2023-03-31T03:16:57.393Z,82.9
2023-03-31T03:17:58.767Z,82.9
2023-03-31T03:18:59.710Z,82.9
2023-03-31T03:20:00.939Z,82.9
2023-03-31T03:21:01.776Z,82.9
2023-03-31T03:22:02.942Z,82.9
2023-03-31T03:23:04.104Z,83
2023-03-31T03:24:05.272Z,83
2023-03-31T03:25:06.285Z,83
2023-03-31T03:26:08.076Z,83
2023-03-31T03:27:09.296Z,83
2023-03-31T03:28:10.114Z,83.1
2023-03-31T03:29:11.090Z,83.1
2023-03-31T03:30:12.251Z,83.2
2023-03-31T03:31:13.436Z,83.3
2023-03-31T03:32:14.590Z,83.3
2023-03-31T03:33:16.602Z,83.4
2023-03-31T03:34:17.563Z,83.4
2023-03-31T03:35:18.541Z,83.4
2023-03-31T03:36:19.976Z,83.4
2023-03-31T03:37:21.232Z,83.5
2023-03-31T03:38:22.397Z,83.5
2023-03-31T03:39:23.568Z,83.5
2023-03-31T03:40:24.550Z,83.5
2023-03-31T03:41:25.500Z,83.6
2023-03-31T03:42:26.692Z,83.6
2023-03-31T03:43:27.827Z,83.6
2023-03-31T03:44:28.797Z,83.6
2023-03-31T03:45:29.960Z,83.6
2023-03-31T03:46:31.031Z,83.6
2023-03-31T03:47:32.020Z,83.6
2023-03-31T03:48:32.964Z,83.6
2023-03-31T03:49:33.933Z,83.6
2023-03-31T03:50:35.094Z,83.6
2023-03-31T03:51:36.262Z,83.6
2023-03-31T03:52:37.426Z,83.6
2023-03-31T03:53:38.389Z,83.6
2023-03-31T03:54:39.555Z,83.6
2023-03-31T03:55:40.726Z,83.6
2023-03-31T03:56:41.967Z,83.6
2023-03-31T03:57:43.204Z,83.6
2023-03-31T03:58:44.352Z,83.6
2023-03-31T03:59:45.370Z,83.6
2023-03-31T04:00:46.384Z,83.6
2023-03-31T04:01:47.565Z,83.6
2023-03-31T04:02:48.846Z,83.6
2023-03-31T04:03:50.006Z,83.6
2023-03-31T04:04:51.342Z,83.6
2023-03-31T04:05:52.485Z,83.6
2023-03-31T04:06:53.461Z,83.6
2023-03-31T04:07:54.620Z,83.6
2023-03-31T04:08:55.784Z,83.6
2023-03-31T04:09:56.950Z,83.6
2023-03-31T04:10:57.917Z,83.6
2023-03-31T04:11:59.088Z,83.6
2023-03-31T04:13:00.281Z,83.6
2023-03-31T04:14:01.422Z,83.6
2023-03-31T04:15:02.583Z,83.6
2023-03-31T04:16:03.731Z,83.6
2023-03-31T04:17:05.047Z,83.5
2023-03-31T04:18:06.201Z,83.5
2023-03-31T04:19:07.347Z,83.5
2023-03-31T04:20:08.521Z,83.5
2023-03-31T04:21:09.680Z,83.5
2023-03-31T04:22:10.689Z,83.5
2023-03-31T04:23:11.850Z,83.5
2023-03-31T04:24:13.022Z,83.5
2023-03-31T04:25:14.189Z,83.5
2023-03-31T04:26:15.344Z,83.5
2023-03-31T04:27:16.519Z,83.5
2023-03-31T04:28:17.504Z,83.5
2023-03-31T04:29:18.654Z,83.5
2023-03-31T04:30:19.811Z,83.5
2023-03-31T04:31:21.095Z,83.5
2023-03-31T04:32:22.124Z,83.5
2023-03-31T04:33:23.285Z,83.6
2023-03-31T04:34:24.464Z,83.6
2023-03-31T04:35:25.584Z,83.6
2023-03-31T04:36:26.863Z,83.7
2023-03-31T04:37:28.036Z,83.7
2023-03-31T04:38:29.198Z,83.7
2023-03-31T04:39:30.209Z,83.7
2023-03-31T04:40:31.376Z,83.8
2023-03-31T04:41:32.540Z,83.8
2023-03-31T04:42:33.637Z,83.7
2023-03-31T04:43:34.878Z,83.7
2023-03-31T04:44:36.030Z,83.7
2023-03-31T04:45:37.332Z,83.7
2023-03-31T04:46:38.472Z,83.7
2023-03-31T04:47:40.011Z,83.7
2023-03-31T04:48:41.404Z,83.7
2023-03-31T04:49:42.567Z,83.7
2023-03-31T04:50:43.572Z,83.7
2023-03-31T04:51:44.585Z,83.7
2023-03-31T04:52:45.745Z,83.7
2023-03-31T04:53:46.910Z,83.7
2023-03-31T04:54:47.721Z,83.7
2023-03-31T04:55:48.891Z,83.7
2023-03-31T04:56:49.967Z,83.7
2023-03-31T04:57:50.976Z,83.7
2023-03-31T04:58:52.187Z,83.7
2023-03-31T04:59:53.126Z,83.8
2023-03-31T05:00:54.337Z,83.8
2023-03-31T05:01:55.491Z,83.8
2023-03-31T05:02:56.690Z,83.8
2023-03-31T05:03:57.688Z,83.8
2023-03-31T05:04:58.328Z,83.9
2023-03-31T05:05:59.517Z,83.9
2023-03-31T05:07:00.667Z,83.9
2023-03-31T05:08:01.837Z,83.9
2023-03-31T05:09:02.805Z,83.9
2023-03-31T05:10:03.810Z,83.9
2023-03-31T05:11:04.782Z,83.9
2023-03-31T05:12:05.945Z,83.9
2023-03-31T05:13:07.116Z,83.9
2023-03-31T05:14:08.463Z,83.9
2023-03-31T05:15:09.853Z,83.9
2023-03-31T05:16:11.320Z,83.9
2023-03-31T05:17:12.479Z,83.9
2023-03-31T05:18:13.447Z,83.8
2023-03-31T05:19:14.615Z,83.8
2023-03-31T05:20:15.778Z,83.8
2023-03-31T05:21:16.942Z,83.7
2023-03-31T05:22:18.103Z,83.7
2023-03-31T05:23:19.113Z,83.6
2023-03-31T05:24:20.276Z,83.6
2023-03-31T05:25:21.444Z,83.5
2023-03-31T05:26:22.612Z,83.4
2023-03-31T05:27:23.583Z,83.4
2023-03-31T05:28:24.745Z,83.3
2023-03-31T05:29:25.937Z,83.3
2023-03-31T05:30:27.149Z,83.3
2023-03-31T05:31:28.344Z,83.2
2023-03-31T05:32:29.543Z,83.2
2023-03-31T05:33:30.754Z,83.2
2023-03-31T05:34:31.927Z,83.2
2023-03-31T05:35:33.049Z,83.2
2023-03-31T05:36:34.097Z,83.2
2023-03-31T05:37:35.253Z,83.1
2023-03-31T05:38:36.446Z,83.1
2023-03-31T05:39:37.389Z,83.1
2023-03-31T05:40:38.566Z,83.1
2023-03-31T05:41:39.573Z,83.1
2023-03-31T05:42:40.743Z,83.1
2023-03-31T05:43:41.912Z,83.1
2023-03-31T05:44:42.911Z,83.1
2023-03-31T05:45:43.852Z,83.1
2023-03-31T05:46:47.433Z,83
2023-03-31T05:47:48.737Z,83
2023-03-31T05:48:49.884Z,83
2023-03-31T05:49:50.872Z,83
2023-03-31T05:50:52.037Z,83
2023-03-31T05:51:53.206Z,83
2023-03-31T05:52:54.178Z,83
2023-03-31T05:53:55.147Z,82.9
2023-03-31T05:54:56.122Z,82.9
2023-03-31T05:55:57.278Z,82.9
2023-03-31T05:56:58.334Z,82.8
2023-03-31T05:57:59.281Z,82.8
2023-03-31T05:59:00.450Z,82.8
2023-03-31T06:00:01.665Z,82.7
2023-03-31T06:01:02.863Z,82.7
2023-03-31T06:02:04.085Z,82.8
2023-03-31T06:03:05.531Z,82.9
2023-03-31T06:04:06.837Z,83.1
2023-03-31T06:05:07.672Z,83.3
2023-03-31T06:06:08.852Z,83.5
2023-03-31T06:07:09.866Z,83.6
2023-03-31T06:08:11.044Z,83.8
2023-03-31T06:09:12.014Z,83.8
2023-03-31T06:10:12.843Z,83.8
2023-03-31T06:11:13.988Z,83.7
2023-03-31T06:12:15.161Z,83.6
2023-03-31T06:13:16.133Z,83.5
2023-03-31T06:14:17.299Z,83.4
2023-03-31T06:15:18.501Z,83.4
2023-03-31T06:16:19.757Z,83.3
2023-03-31T06:17:20.919Z,83.2
2023-03-31T06:18:21.980Z,83.2
2023-03-31T06:19:23.029Z,83.2
2023-03-31T06:20:29.283Z,83.1
2023-03-31T06:21:30.530Z,83.1
2023-03-31T06:22:31.690Z,83
2023-03-31T06:23:32.844Z,83
2023-03-31T06:24:34.022Z,82.9
2023-03-31T06:25:52.353Z,82.9
2023-03-31T06:26:54.784Z,82.8
2023-03-31T06:27:55.945Z,82.8
2023-03-31T06:28:57.108Z,82.8
2023-03-31T06:29:58.275Z,82.7
2023-03-31T06:30:59.470Z,82.7
2023-03-31T06:32:00.789Z,82.6
2023-03-31T06:33:01.959Z,82.6
2023-03-31T06:34:03.134Z,82.5
2023-03-31T06:35:04.171Z,82.5
2023-03-31T06:36:05.335Z,82.4
2023-03-31T06:37:06.306Z,82.3
2023-03-31T06:38:07.486Z,82.2
2023-03-31T06:39:08.641Z,82.1
2023-03-31T06:40:09.797Z,82
2023-03-31T06:41:10.971Z,81.9
2023-03-31T06:42:12.150Z,81.9
2023-03-31T06:43:13.299Z,81.8
2023-03-31T06:44:14.462Z,81.8
2023-03-31T06:45:15.633Z,81.8
2023-03-31T06:46:17.022Z,81.7
2023-03-31T06:47:18.265Z,81.7
2023-03-31T06:48:19.434Z,81.7
2023-03-31T06:49:20.602Z,81.6
2023-03-31T06:50:21.762Z,81.6
2023-03-31T06:51:22.934Z,81.6
2023-03-31T06:52:24.096Z,81.5
2023-03-31T06:53:25.270Z,81.4
2023-03-31T06:54:26.428Z,81.4
2023-03-31T06:55:27.593Z,81.3
2023-03-31T06:56:28.638Z,81.3
2023-03-31T06:57:30.403Z,81.2
2023-03-31T06:58:32.686Z,81.2
2023-03-31T06:59:33.844Z,81.1
2023-03-31T07:00:35.018Z,81
2023-03-31T07:01:36.468Z,80.9
2023-03-31T07:02:37.905Z,80.9
2023-03-31T07:03:39.480Z,80.8
2023-03-31T07:04:40.716Z,80.7
2023-03-31T07:05:41.883Z,80.5
2023-03-31T07:06:43.050Z,80.4
2023-03-31T07:07:46.992Z,80.3
2023-03-31T07:08:48.157Z,80.2
2023-03-31T07:09:49.323Z,80.1
2023-03-31T07:10:50.493Z,80
2023-03-31T07:11:51.655Z,80
2023-03-31T07:12:52.823Z,79.9
2023-03-31T07:13:53.983Z,79.8
2023-03-31T07:14:55.151Z,79.8
2023-03-31T07:15:56.618Z,79.7
2023-03-31T07:16:57.713Z,79.7
2023-03-31T07:17:58.985Z,79.8
2023-03-31T07:19:00.167Z,79.8
2023-03-31T07:20:01.346Z,79.9
2023-03-31T07:21:02.555Z,79.9
2023-03-31T07:22:03.664Z,79.9
2023-03-31T07:23:04.830Z,80
2023-03-31T07:24:05.993Z,80
2023-03-31T07:25:07.165Z,80
2023-03-31T07:27:08.897Z,79.9
2023-03-31T07:28:10.057Z,80
2023-03-31T07:29:11.226Z,80
2023-03-31T07:30:12.396Z,79.9
2023-03-31T07:31:13.662Z,79.9
2023-03-31T07:32:15.117Z,79.9
2023-03-31T07:33:16.602Z,79.8
2023-03-31T07:34:17.753Z,79.7
2023-03-31T07:35:18.917Z,79.6
2023-03-31T07:36:21.940Z,79.6
2023-03-31T07:37:23.341Z,79.5
2023-03-31T07:38:24.504Z,79.5
2023-03-31T07:39:25.672Z,79.4
2023-03-31T07:40:27.083Z,79.4
2023-03-31T07:41:28.388Z,79.3
2023-03-31T07:42:29.544Z,79.3
2023-03-31T07:43:30.712Z,79.2
2023-03-31T07:44:31.898Z,79.2
2023-03-31T07:45:33.040Z,79.2
2023-03-31T07:46:34.375Z,79.2
2023-03-31T07:47:35.656Z,79.2
2023-03-31T07:48:36.937Z,79.2
2023-03-31T07:49:38.160Z,79.2
2023-03-31T07:50:39.333Z,79.2
2023-03-31T07:51:40.489Z,79.3
2023-03-31T07:52:46.979Z,79.3
2023-03-31T07:53:48.440Z,79.3
2023-03-31T07:54:49.606Z,79.3
2023-03-31T07:55:50.576Z,79.3
2023-03-31T07:56:51.854Z,79.3
2023-03-31T07:57:52.994Z,79.2
2023-03-31T07:58:58.442Z,79.2
2023-03-31T07:59:59.599Z,79.2
2023-03-31T08:01:00.764Z,79.2
2023-03-31T08:02:02.184Z,79.2
2023-03-31T08:03:03.704Z,79.1
2023-03-31T08:04:04.962Z,79.1
2023-03-31T08:05:05.926Z,79.1
2023-03-31T08:06:07.976Z,79
2023-03-31T08:07:09.319Z,79
2023-03-31T08:08:10.338Z,78.8
2023-03-31T08:09:11.502Z,78.8
2023-03-31T08:10:12.667Z,78.7
2023-03-31T08:11:13.841Z,78.6
2023-03-31T08:12:15.004Z,78.5
2023-03-31T08:13:16.396Z,78.5
2023-03-31T08:14:41.645Z,78.5
2023-03-31T08:15:42.877Z,78.4
2023-03-31T08:16:43.944Z,78.3
2023-03-31T08:17:45.044Z,78.3
2023-03-31T08:18:46.242Z,78.2
2023-03-31T08:19:47.383Z,78.1
2023-03-31T08:20:50.162Z,78.1
2023-03-31T08:21:51.328Z,78
2023-03-31T08:22:52.591Z,78
2023-03-31T08:23:53.730Z,78
2023-03-31T08:24:54.898Z,77.9
2023-03-31T08:25:56.066Z,77.9
2023-03-31T08:26:57.235Z,77.9
2023-03-31T08:27:58.256Z,77.9
2023-03-31T08:28:59.412Z,77.9
2023-03-31T08:30:00.590Z,77.9
2023-03-31T08:31:01.746Z,78
2023-03-31T08:32:03.120Z,78
2023-03-31T08:33:04.464Z,78
2023-03-31T08:34:05.530Z,78
2023-03-31T08:35:06.686Z,78
2023-03-31T08:36:08.476Z,78
2023-03-31T08:37:09.734Z,77.9
2023-03-31T08:38:10.932Z,77.9
2023-03-31T08:39:12.091Z,77.8
2023-03-31T08:40:13.262Z,77.8
2023-03-31T08:41:14.424Z,77.8
2023-03-31T08:42:16.777Z,77.7
2023-03-31T08:43:17.943Z,77.7
2023-03-31T08:44:19.100Z,77.7
2023-03-31T08:45:20.279Z,77.7
2023-03-31T08:46:21.328Z,77.7
2023-03-31T08:47:22.173Z,77.7
2023-03-31T08:48:23.592Z,77.7
2023-03-31T08:49:24.763Z,77.7
2023-03-31T08:50:25.930Z,77.7
2023-03-31T08:51:27.107Z,77.6
2023-03-31T08:52:28.264Z,77.6
2023-03-31T08:53:29.079Z,77.5
2023-03-31T08:54:30.245Z,77.4
2023-03-31T08:55:31.257Z,77.3
2023-03-31T08:56:32.419Z,77.3
2023-03-31T08:57:33.751Z,77.2
2023-03-31T08:58:34.901Z,77.2
2023-03-31T08:59:36.060Z,77.2
2023-03-31T09:00:37.223Z,77.1
2023-03-31T09:01:57.170Z,77.1
2023-03-31T09:02:58.860Z,77.1
2023-03-31T09:04:00.894Z,77.1
2023-03-31T09:05:02.242Z,77.1
2023-03-31T09:06:03.302Z,77
2023-03-31T09:07:04.464Z,77
2023-03-31T09:08:05.628Z,76.9
2023-03-31T09:09:06.795Z,76.8
2023-03-31T09:10:07.965Z,76.8
2023-03-31T09:11:09.152Z,76.7
2023-03-31T09:12:10.324Z,76.7
2023-03-31T09:13:11.486Z,76.7
2023-03-31T09:14:12.644Z,76.7
2023-03-31T09:15:16.901Z,76.7
2023-03-31T09:16:18.108Z,76.7
2023-03-31T09:17:19.289Z,76.7
2023-03-31T09:18:20.475Z,76.7
2023-03-31T09:19:21.643Z,76.6
2023-03-31T09:20:22.840Z,76.5
2023-03-31T09:21:23.981Z,76.5
2023-03-31T09:22:25.145Z,76.5
2023-03-31T09:23:26.310Z,76.6
2023-03-31T09:24:27.817Z,76.6
2023-03-31T09:25:29.535Z,76.6
2023-03-31T09:26:30.700Z,76.6
2023-03-31T09:27:31.867Z,76.6
2023-03-31T09:28:33.034Z,76.7
2023-03-31T09:29:34.195Z,76.7
2023-03-31T09:30:35.369Z,76.6
2023-03-31T09:31:36.648Z,76.6
2023-03-31T09:32:37.872Z,76.6
2023-03-31T09:33:39.109Z,76.5
2023-03-31T09:34:40.278Z,76.4
2023-03-31T09:35:42.268Z,76.3
2023-03-31T09:36:44.153Z,76.2
2023-03-31T09:37:45.334Z,76
2023-03-31T09:38:46.488Z,75.8
2023-03-31T09:39:47.653Z,75.6
2023-03-31T09:40:48.814Z,75.5
2023-03-31T09:41:49.801Z,75.4
2023-03-31T09:42:50.977Z,75.3
2023-03-31T09:43:52.146Z,75.3
2023-03-31T09:44:53.310Z,75.3
2023-03-31T09:46:15.862Z,75.3
2023-03-31T09:47:17.367Z,75.5
2023-03-31T09:48:18.641Z,75.5
2023-03-31T09:49:19.814Z,75.5
2023-03-31T09:50:26.119Z,75.4
2023-03-31T09:51:27.691Z,75.4
2023-03-31T09:52:28.831Z,75.4
2023-03-31T09:53:29.998Z,75.5
2023-03-31T09:54:31.166Z,75.6
2023-03-31T09:55:40.926Z,75.6
2023-03-31T09:56:42.121Z,75.7
2023-03-31T09:57:43.066Z,75.7
2023-03-31T09:58:44.246Z,75.8
2023-03-31T09:59:45.268Z,75.8
2023-03-31T10:00:46.438Z,75.8
2023-03-31T10:01:47.414Z,75.9
2023-03-31T10:02:48.507Z,75.8
2023-03-31T10:03:49.836Z,75.8
2023-03-31T10:04:51.013Z,75.8
2023-03-31T10:05:52.179Z,75.8
2023-03-31T10:06:53.367Z,75.7
2023-03-31T10:07:54.606Z,75.7
2023-03-31T10:08:55.773Z,75.8
2023-03-31T10:09:56.942Z,75.8
2023-03-31T10:10:58.104Z,75.8
2023-03-31T10:11:59.277Z,75.9
2023-03-31T10:13:00.432Z,75.9
2023-03-31T10:14:01.590Z,76
2023-03-31T10:15:02.783Z,76.1
2023-03-31T10:16:04.056Z,76.2
2023-03-31T10:17:05.327Z,76.2
2023-03-31T10:18:06.527Z,76.3
2023-03-31T10:19:07.607Z,76.4
2023-03-31T10:20:08.770Z,76.5
2023-03-31T10:21:10.002Z,76.5
2023-03-31T10:22:11.487Z,76.6
2023-03-31T10:23:13.157Z,76.6
2023-03-31T10:24:14.120Z,76.7
2023-03-31T10:25:15.291Z,76.7
2023-03-31T10:26:16.452Z,76.8
2023-03-31T10:27:20.441Z,76.8
2023-03-31T10:28:21.578Z,76.9
2023-03-31T10:29:22.549Z,77
2023-03-31T10:30:23.715Z,77.1
2023-03-31T10:31:25.020Z,77.1
2023-03-31T10:32:26.400Z,77.2
2023-03-31T10:33:27.536Z,77.3
2023-03-31T10:34:28.684Z,77.4
2023-03-31T10:35:29.852Z,77.5
2023-03-31T10:36:30.820Z,77.6
2023-03-31T10:37:32.007Z,77.8
2023-03-31T10:38:33.155Z,77.9
2023-03-31T10:39:34.317Z,77.9
2023-03-31T10:40:35.557Z,78
2023-03-31T10:41:36.733Z,78.1
2023-03-31T10:42:37.905Z,78.2
2023-03-31T10:43:39.068Z,78.3
2023-03-31T10:44:40.043Z,78.4
2023-03-31T10:45:41.012Z,78.5
2023-03-31T10:46:42.349Z,78.6
2023-03-31T10:47:43.548Z,78.7
2023-03-31T10:48:44.897Z,78.8
2023-03-31T10:49:46.205Z,78.9
2023-03-31T10:50:47.373Z,79
2023-03-31T10:51:48.531Z,79.1
2023-03-31T10:52:49.738Z,79.2
2023-03-31T10:53:50.928Z,79.3
2023-03-31T10:54:52.099Z,79.4
2023-03-31T10:55:53.112Z,79.5
2023-03-31T10:56:55.073Z,79.6
2023-03-31T10:57:56.223Z,79.7
2023-03-31T10:59:07.003Z,79.8
2023-03-31T11:00:08.173Z,79.9
2023-03-31T11:01:09.161Z,79.8
2023-03-31T11:02:10.359Z,79.8
2023-03-31T11:03:11.798Z,79.8
2023-03-31T11:04:13.028Z,79.9
2023-03-31T11:05:14.315Z,79.9
2023-03-31T11:06:15.703Z,80
2023-03-31T11:07:16.878Z,80
2023-03-31T11:08:20.856Z,80.1
2023-03-31T11:09:22.083Z,80.2
2023-03-31T11:10:23.042Z,80.3
2023-03-31T11:11:24.677Z,80.4
2023-03-31T11:12:25.692Z,80.5
2023-03-31T11:13:26.852Z,80.6
2023-03-31T11:14:31.331Z,80.6
2023-03-31T11:15:32.490Z,80.7
2023-03-31T11:16:33.927Z,80.7
2023-03-31T11:17:35.121Z,80.8
2023-03-31T11:18:36.276Z,80.8
2023-03-31T11:19:37.432Z,80.9
2023-03-31T11:20:38.600Z,81
2023-03-31T11:21:39.901Z,81
2023-03-31T11:22:41.078Z,81.1
2023-03-31T11:23:42.258Z,81.1
2023-03-31T11:24:43.401Z,81
2023-03-31T11:25:44.568Z,81
2023-03-31T11:26:45.577Z,81
2023-03-31T11:27:46.746Z,81
2023-03-31T11:28:47.906Z,81.1
2023-03-31T11:29:49.070Z,81.1
2023-03-31T11:30:50.237Z,81.1
2023-03-31T11:31:51.487Z,81.2
2023-03-31T11:32:52.692Z,81.2
2023-03-31T11:33:53.987Z,81.2
2023-03-31T11:34:54.963Z,81.2
2023-03-31T11:35:55.950Z,81.2
2023-03-31T11:36:57.093Z,81.1
2023-03-31T11:37:58.257Z,81
2023-03-31T11:38:59.449Z,80.9
2023-03-31T11:40:00.602Z,80.8
2023-03-31T11:41:01.762Z,80.8
2023-03-31T11:42:02.943Z,80.7
2023-03-31T11:43:04.108Z,80.7
2023-03-31T11:44:05.278Z,80.6
2023-03-31T11:45:06.444Z,80.6
2023-03-31T11:46:07.939Z,80.6
2023-03-31T11:47:09.342Z,80.5
2023-03-31T11:48:10.449Z,80.5
2023-03-31T11:49:11.582Z,80.5
2023-03-31T11:50:12.746Z,80.5
2023-03-31T11:51:13.718Z,80.5
2023-03-31T11:52:14.932Z,80.4
2023-03-31T11:53:16.250Z,80.3
2023-03-31T11:54:17.307Z,80.3
2023-03-31T11:55:18.471Z,80.2
2023-03-31T11:56:19.635Z,80.1
2023-03-31T11:57:20.954Z,80
2023-03-31T11:58:22.088Z,80
2023-03-31T11:59:23.269Z,80
2023-03-31T12:00:24.240Z,80
2023-03-31T12:01:25.397Z,80
2023-03-31T12:02:26.709Z,80
2023-03-31T12:03:27.930Z,80
2023-03-31T12:04:28.898Z,80
2023-03-31T12:05:29.884Z,80
2023-03-31T12:06:31.080Z,80
2023-03-31T12:07:32.161Z,80
2023-03-31T12:08:33.383Z,79.9
2023-03-31T12:09:34.581Z,79.8
2023-03-31T12:10:35.718Z,79.6
2023-03-31T12:11:36.882Z,79.5
2023-03-31T12:12:38.314Z,79.3
2023-03-31T12:13:39.483Z,79.2
2023-03-31T12:14:40.644Z,79.1
2023-03-31T12:15:41.939Z,79
2023-03-31T12:16:43.033Z,78.9
2023-03-31T12:17:44.226Z,78.9
2023-03-31T12:18:45.382Z,78.9
2023-03-31T12:19:46.549Z,78.9
2023-03-31T12:20:47.712Z,78.9
2023-03-31T12:21:48.682Z,79
2023-03-31T12:22:49.847Z,79.1
2023-03-31T12:23:51.027Z,79.2
2023-03-31T12:24:52.217Z,79.3
2023-03-31T12:25:53.346Z,79.4
2023-03-31T12:26:54.510Z,79.4
2023-03-31T12:27:55.677Z,79.5
2023-03-31T12:28:56.840Z,79.5
2023-03-31T12:29:57.974Z,79.5
2023-03-31T12:30:59.168Z,79.5
2023-03-31T12:32:00.147Z,79.5
2023-03-31T12:33:01.057Z,79.5
2023-03-31T12:34:02.201Z,79.4
2023-03-31T12:35:03.373Z,79.4
2023-03-31T12:36:05.141Z,79.4
2023-03-31T12:37:06.523Z,79.3
2023-03-31T12:38:07.696Z,79.2
2023-03-31T12:39:08.853Z,79.2
2023-03-31T12:40:10.189Z,79.2
2023-03-31T12:41:11.327Z,79.1
2023-03-31T12:42:12.323Z,79.1
2023-03-31T12:43:13.464Z,78.9
2023-03-31T12:44:14.631Z,78.8
2023-03-31T12:45:15.738Z,78.8
2023-03-31T12:46:17.073Z,78.8
2023-03-31T12:47:18.308Z,78.7
2023-03-31T12:48:19.471Z,78.7
2023-03-31T12:49:20.637Z,78.7
2023-03-31T12:50:21.607Z,78.7
2023-03-31T12:51:22.772Z,78.7
2023-03-31T12:52:23.942Z,78.7
2023-03-31T12:53:25.107Z,78.7
2023-03-31T12:54:26.272Z,78.7
2023-03-31T12:55:27.467Z,78.6
2023-03-31T12:56:28.495Z,78.6
2023-03-31T12:57:29.829Z,78.7
2023-03-31T12:58:33.807Z,78.8
2023-03-31T12:59:34.778Z,78.8
2023-03-31T13:00:35.977Z,78.8
2023-03-31T13:01:37.160Z,78.9
2023-03-31T13:02:38.407Z,78.9
2023-03-31T13:03:39.602Z,78.9
2023-03-31T13:04:40.767Z,78.8
2023-03-31T13:05:41.934Z,78.8
2023-03-31T13:06:43.101Z,78.7
2023-03-31T13:07:44.066Z,78.7
2023-03-31T13:08:45.233Z,78.7
2023-03-31T13:09:46.420Z,78.7
2023-03-31T13:10:47.809Z,78.8
2023-03-31T13:11:49.074Z,78.8
2023-03-31T13:12:50.044Z,78.8
2023-03-31T13:22:03.078Z,78.4
2023-03-31T13:23:04.249Z,78.2
2023-03-31T13:24:05.410Z,78.2
2023-03-31T13:25:06.578Z,78.1
2023-03-31T13:26:07.565Z,77.9
2023-03-31T13:27:08.710Z,77.7
2023-03-31T13:28:09.990Z,77.5
2023-03-31T13:29:11.193Z,77.4
2023-03-31T13:30:12.360Z,77.4
2023-03-31T13:31:13.175Z,77.4
2023-03-31T13:32:14.296Z,77.4
2023-03-31T13:33:18.929Z,77.4
2023-03-31T13:34:20.099Z,77.5
2023-03-31T13:35:21.261Z,77.7
2023-03-31T13:36:22.349Z,77.7
2023-03-31T13:37:23.535Z,77.8
2023-03-31T13:38:24.505Z,77.7
2023-03-31T13:39:25.671Z,77.8
2023-03-31T13:40:26.852Z,77.9
2023-03-31T13:41:28.038Z,77.9
2023-03-31T13:42:29.106Z,77.9
2023-03-31T13:43:30.070Z,78
2023-03-31T13:44:31.234Z,78
2023-03-31T13:45:32.453Z,78
2023-03-31T13:46:33.510Z,78.1
2023-03-31T13:47:34.553Z,78.1
2023-03-31T13:48:35.799Z,78.1
2023-03-31T13:49:36.987Z,78.1
2023-03-31T13:50:38.165Z,78.1
2023-03-31T13:51:39.332Z,78.1
2023-03-31T13:52:40.357Z,78
2023-03-31T13:53:41.513Z,78.1